createdAt,value
2023-03-01T00:08:28.776Z,2.31
2023-03-01T00:18:51.513Z,2.27
2023-03-01T00:29:12.881Z,2.14
2023-03-01T00:39:34.313Z,2.15
2023-03-01T00:49:55.659Z,2.05
2023-03-01T01:00:17.241Z,2.07
2023-03-01T01:10:38.857Z,1.98
2023-03-01T01:21:04.536Z,1.95
2023-03-01T01:31:26.780Z,1.89
2023-03-01T01:41:48.622Z,1.85
2023-03-01T01:52:18.602Z,1.79
2023-03-01T02:02:42.132Z,1.69
2023-03-01T02:13:03.827Z,1.68
2023-03-01T02:23:26.506Z,1.59
2023-03-01T02:33:49.428Z,1.59
2023-03-01T02:44:10.865Z,1.61
2023-03-01T02:54:44.426Z,1.54
2023-03-01T03:05:07.062Z,1.44
2023-03-01T03:15:29.922Z,1.37
2023-03-01T03:25:51.363Z,1.30
2023-03-01T03:36:18.709Z,1.21
2023-03-01T03:46:40.047Z,1.19
2023-03-01T03:57:01.408Z,1.14
2023-03-01T04:07:22.800Z,1.17
2023-03-01T04:17:45.489Z,1.13
2023-03-01T04:28:07.290Z,1.10
2023-03-01T04:38:28.652Z,1.02
2023-03-01T04:48:50.141Z,0.95
2023-03-01T04:59:13.503Z,0.82
2023-03-01T05:09:34.943Z,0.81
2023-03-01T05:19:56.544Z,0.78
2023-03-01T05:30:18.543Z,0.71
2023-03-01T05:40:40.190Z,0.62
2023-03-01T05:51:01.688Z,0.59
2023-03-01T06:01:23.056Z,0.58
2023-03-01T06:11:44.931Z,0.59
2023-03-01T06:22:06.317Z,0.61
2023-03-01T06:32:27.782Z,0.54
2023-03-01T06:42:50.368Z,0.56
2023-03-01T06:53:11.913Z,0.60
2023-03-01T07:03:33.251Z,0.65
2023-03-01T07:13:55.068Z,0.68
2023-03-01T07:24:16.441Z,0.82
2023-03-01T07:34:37.888Z,0.97
2023-03-01T07:44:59.248Z,1.17
2023-03-01T07:55:21.132Z,1.46
2023-03-01T08:05:42.504Z,1.65
2023-03-01T08:16:04.912Z,1.84
2023-03-01T08:26:26.316Z,1.97
2023-03-01T08:36:47.756Z,1.97
2023-03-01T08:47:09.134Z,2.13
2023-03-01T08:57:30.576Z,2.33
2023-03-01T09:07:51.975Z,2.54
2023-03-01T09:18:13.441Z,2.78
2023-03-01T09:28:34.821Z,3.02
2023-03-01T09:38:56.250Z,3.23
2023-03-01T09:49:26.327Z,3.42
2023-03-01T10:00:01.801Z,3.62
2023-03-01T10:10:34.390Z,3.87
2023-03-01T10:21:16.826Z,4.02
2023-03-01T10:31:44.212Z,4.25
2023-03-01T10:42:07.115Z,4.43
2023-03-01T10:52:30.941Z,4.63
2023-03-01T11:03:03.692Z,4.87
2023-03-01T11:13:25.049Z,5.03
2023-03-01T11:23:47.858Z,5.21
2023-03-01T11:34:12.731Z,5.38
2023-03-01T11:44:36.385Z,5.51
2023-03-01T11:54:57.937Z,5.66
2023-03-01T12:05:31.460Z,5.78
2023-03-01T12:15:55.824Z,5.87
2023-03-01T12:26:32.680Z,6.06
2023-03-01T12:36:54.112Z,6.16
2023-03-01T12:47:15.475Z,6.34
2023-03-01T12:57:44.935Z,6.38
2023-03-01T13:08:06.337Z,6.47
2023-03-01T13:18:29.469Z,6.58
2023-03-01T13:28:51.094Z,6.77
2023-03-01T13:39:32.386Z,6.91
2023-03-01T13:49:58.236Z,7.05
2023-03-01T14:00:30.569Z,7.06
2023-03-01T14:11:12.398Z,7.09
2023-03-01T14:21:33.845Z,7.20
2023-03-01T14:31:55.422Z,7.25
2023-03-01T14:42:17.139Z,7.37
2023-03-01T14:52:39.972Z,7.46
2023-03-01T15:03:10.814Z,7.45
2023-03-01T15:13:33.707Z,7.53
2023-03-01T15:23:58.231Z,7.55
2023-03-01T15:34:24.438Z,7.59
2023-03-01T15:44:46.305Z,7.60
2023-03-01T15:55:16.553Z,7.66
2023-03-01T16:05:38.504Z,7.88
2023-03-01T16:16:00.134Z,7.63
2023-03-01T16:26:21.741Z,7.51
2023-03-01T16:36:43.660Z,7.40
2023-03-01T16:47:05.044Z,7.29
2023-03-01T16:57:26.462Z,7.07
2023-03-01T17:07:47.889Z,6.85
2023-03-01T17:18:09.935Z,6.56
2023-03-01T17:28:33.215Z,6.30
2023-03-01T17:38:54.782Z,6.10
2023-03-01T17:49:17.901Z,5.92
2023-03-01T17:59:39.319Z,5.67
2023-03-01T18:10:00.693Z,5.48
2023-03-01T18:20:22.115Z,5.25
2023-03-01T18:30:43.505Z,5.14
2023-03-01T18:41:04.896Z,5.06
2023-03-01T18:51:27.629Z,5.03
2023-03-01T19:01:49.179Z,4.93
2023-03-01T19:12:10.634Z,4.87
2023-03-01T19:22:32.008Z,4.80
2023-03-01T19:32:53.844Z,4.54
2023-03-01T19:43:15.363Z,4.53
2023-03-01T19:53:37.771Z,4.53
2023-03-01T20:03:59.261Z,4.52
2023-03-01T20:14:23.739Z,4.50
2023-03-01T20:24:45.508Z,4.50
2023-03-01T20:35:07.206Z,4.36
2023-03-01T20:45:28.758Z,4.25
2023-03-01T20:55:50.106Z,4.17
2023-03-01T21:06:11.475Z,4.09
2023-03-01T21:16:33.690Z,4.04
2023-03-01T21:26:55.404Z,4.08
2023-03-01T21:37:17.779Z,4.05
2023-03-01T21:47:40.227Z,3.86
2023-03-01T21:58:01.574Z,3.81
2023-03-01T22:08:22.998Z,3.78
2023-03-01T22:18:44.458Z,3.85
2023-03-01T22:29:10.743Z,3.83
2023-03-01T22:39:32.133Z,3.77
2023-03-01T22:49:56.774Z,3.72
2023-03-01T23:00:20.100Z,3.72
2023-03-01T23:10:41.602Z,3.74
2023-03-01T23:21:10.458Z,3.68
2023-03-01T23:31:31.877Z,3.65
2023-03-01T23:41:53.499Z,3.62
2023-03-01T23:52:17.256Z,3.61
